^^
Datos históricos de la estación: Murcia-Puente Tocinos
Diario Informe para Junio 24, 2019 Unidades:  Métrico    Ingés   Ambas
Diario Semanal Mensual Anual
  Máxima: Mínima: Promedio:
Temperatura: 34.4 °C 23.3 °C 29.2 °C
Punto de rocio: 19.4 °C 9.1 °C 13.8 °C
Humedad: 63% 22% 41%
Velocidad viento: 19.8km/h 0km/h 9.1km/h
Racha viento: 35.2km/h - -
Viento- - ESE
Presión: 1014.9 hPa 1011.9 hPa -
Precipitación: 0.0 mm    
 
 
Tabla de datos para Junio 24, 2019
Hora Temperatura Punto de rocio Presión Viento Velocidad viento Racha viento Humedad Intensidad lluvia(por hora) Nubes
00:04 27.7 °C 15.1 °C 1014.9 hPa NE 6.4 km/h 11.1 km/h 46% 0.0 mm
00:09 27.6 °C 14.9 °C 1014.9 hPa NE 7.6 km/h 9.3 km/h 46% 0.0 mm
00:14 27.6 °C 14.9 °C 1014.9 hPa ENE 7.6 km/h 9.3 km/h 46% 0.0 mm
00:19 27.4 °C 15.1 °C 1014.8 hPa ENE 6.9 km/h 9.3 km/h 47% 0.0 mm
00:24 27.4 °C 15.1 °C 1014.8 hPa NE 6.9 km/h 7.4 km/h 47% 0.0 mm
00:29 27.3 °C 15 °C 1014.8 hPa ENE 5.8 km/h 9.3 km/h 47% 0.0 mm
00:34 27.2 °C 15.2 °C 1014.7 hPa NE 5.8 km/h 7.4 km/h 48% 0.0 mm
00:39 27.2 °C 15.2 °C 1014.7 hPa NNO 4.7 km/h 2.3 km/h 48% 0.0 mm
00:44 27.2 °C 15.2 °C 1014.7 hPa NO 4.7 km/h 6.4 km/h 48% 0.0 mm
00:49 27.1 °C 15.2 °C 1014.8 hPa ONO 3.9 km/h 5.6 km/h 48% 0.0 mm
00:54 27.1 °C 15.2 °C 1014.8 hPa NO 3.9 km/h 3.9 km/h 48% 0.0 mm
00:59 27.1 °C 15.2 °C 1014.8 hPa NNE 3.9 km/h 9.3 km/h 48% 0.0 mm
01:04 27 °C 15.4 °C 1014.6 hPa NNO 3.9 km/h 7.4 km/h 49% 0.0 mm
01:09 26.9 °C 15.3 °C 1014.6 hPa Oeste 4.7 km/h 5.8 km/h 49% 0.0 mm
01:14 26.9 °C 15.3 °C 1014.6 hPa NNO 4.7 km/h 7.4 km/h 49% 0.0 mm
01:19 26.9 °C 15.3 °C 1014.6 hPa NO 3.9 km/h 3.9 km/h 49% 0.0 mm
01:24 26.8 °C 15.2 °C 1014.6 hPa OSO 3.9 km/h 7.4 km/h 49% 0.0 mm
01:29 26.8 °C 15.2 °C 1014.6 hPa OSO 3.9 km/h 5 km/h 49% 0.0 mm
01:34 26.9 °C 15.3 °C 1014.7 hPa OSO 3.9 km/h 4.7 km/h 49% 0.0 mm
01:39 26.9 °C 15.3 °C 1014.7 hPa OSO 3.2 km/h 3.7 km/h 49% 0.0 mm
01:44 26.9 °C 15.3 °C 1014.7 hPa OSO 3.2 km/h   49% 0.0 mm
01:49 26.9 °C 14.9 °C 1014.6 hPa OSO 2.3 km/h 5.6 km/h 48% 0.0 mm
01:54 26.9 °C 14.9 °C 1014.6 hPa OSO 2.3 km/h 5.6 km/h 48% 0.0 mm
01:59 26.9 °C 14.9 °C 1014.6 hPa OSO 3.2 km/h 3.9 km/h 48% 0.0 mm
02:04 26.9 °C 14.9 °C 1014.5 hPa ENE 3.2 km/h 3.7 km/h 48% 0.0 mm
02:09 26.9 °C 14.9 °C 1014.5 hPa ENE 2.9 km/h 5.6 km/h 48% 0.0 mm
02:14 26.9 °C 14.9 °C 1014.5 hPa ENE 2.9 km/h 3.7 km/h 48% 0.0 mm
02:19 26.9 °C 14.9 °C 1014.5 hPa ENE 2.3 km/h 2.3 km/h 48% 0.0 mm
02:24 26.8 °C 15.2 °C 1014.5 hPa ENE 2.3 km/h   49% 0.0 mm
02:29 26.7 °C 15.4 °C 1014.5 hPa Calm     50% 0.0 mm
02:34 26.5 °C 15.2 °C 1014.5 hPa Calm   5 km/h 50% 0.0 mm
02:39 26.4 °C 15.4 °C 1014.5 hPa SSE 2.3 km/h 7.4 km/h 51% 0.0 mm
02:44 26.4 °C 15.4 °C 1014.5 hPa SSE 2.3 km/h 3.7 km/h 51% 0.0 mm
02:49 26.4 °C 15.4 °C 1014.5 hPa NO 2.3 km/h 5.6 km/h 51% 0.0 mm
02:54 26.3 °C 15.3 °C 1014.5 hPa NO 2.3 km/h   51% 0.0 mm
02:59 26.2 °C 15.3 °C 1014.5 hPa Calm     51% 0.0 mm
03:04 26.2 °C 15.3 °C 1014.4 hPa Calm     51% 0.0 mm
03:09 26.2 °C 15.3 °C 1014.4 hPa Calm   5.6 km/h 51% 0.0 mm
03:14 26.1 °C 15.2 °C 1014.4 hPa Calm   5.6 km/h 51% 0.0 mm
03:19 26.1 °C 15.2 °C 1014.3 hPa Este 2.3 km/h 5 km/h 51% 0.0 mm
03:24 26 °C 15.1 °C 1014.3 hPa Este 2.3 km/h   51% 0.0 mm
03:29 25.9 °C 15.3 °C 1014.3 hPa Este 2.3 km/h   52% 0.0 mm
03:34 25.8 °C 15.2 °C 1014.2 hPa SSE 2.3 km/h 3.9 km/h 52% 0.0 mm
03:39 25.8 °C 15.2 °C 1014.2 hPa SSE 2.9 km/h   52% 0.0 mm
03:44 25.8 °C 15.2 °C 1014.2 hPa SE 2.9 km/h 6.4 km/h 52% 0.0 mm
03:49 25.8 °C 15.2 °C 1014.2 hPa Sur 2.9 km/h 7.4 km/h 52% 0.0 mm
03:54 25.7 °C 15.1 °C 1014.2 hPa Sur 2.9 km/h 7.6 km/h 52% 0.0 mm
03:59 25.7 °C 14.8 °C 1014.2 hPa SSE 5 km/h 7.4 km/h 51% 0.0 mm
04:04 25.8 °C 14.9 °C 1014.1 hPa Sur 5 km/h 10 km/h 51% 0.0 mm
04:09 25.8 °C 14.6 °C 1014.1 hPa SSO 6.9 km/h 9.5 km/h 50% 0.0 mm
04:14 25.8 °C 14.3 °C 1014.1 hPa SO 6.9 km/h 9.3 km/h 49% 0.0 mm
04:19 25.8 °C 14.3 °C 1014.2 hPa SO 6.9 km/h 9.3 km/h 49% 0.0 mm
04:24 25.9 °C 14.4 °C 1014.2 hPa SO 6.9 km/h 11.1 km/h 49% 0.0 mm
04:29 25.9 °C 14.4 °C 1014.2 hPa OSO 6.9 km/h 7.4 km/h 49% 0.0 mm
04:34 25.9 °C 14.4 °C 1014.1 hPa SO 6.9 km/h 7.4 km/h 49% 0.0 mm
04:39 25.9 °C 14.4 °C 1014.1 hPa SO 4.7 km/h 4.7 km/h 49% 0.0 mm
04:44 25.8 °C 14.3 °C 1014.1 hPa SO 4.7 km/h 5.6 km/h 49% 0.0 mm
04:49 25.7 °C 13.9 °C 1014.0 hPa Oeste 2.9 km/h 6.4 km/h 48% 0.0 mm
04:54 25.6 °C 13.8 °C 1014.0 hPa Oeste 2.9 km/h 5.6 km/h 48% 0.0 mm
04:59 25.4 °C 13.6 °C 1014.0 hPa Oeste 3.9 km/h 4.7 km/h 48% 0.0 mm
05:04 25.3 °C 13.5 °C 1013.8 hPa OSO 3.9 km/h 5.6 km/h 48% 0.0 mm
05:09 25.3 °C 13.5 °C 1013.8 hPa OSO 3.9 km/h 5.8 km/h 48% 0.0 mm
05:14 25.3 °C 13.5 °C 1013.8 hPa SO 3.9 km/h 5.6 km/h 48% 0.0 mm
05:19 25.3 °C 13.5 °C 1013.8 hPa OSO 3.9 km/h 5.6 km/h 48% 0.0 mm
05:24 25.2 °C 13.4 °C 1013.8 hPa OSO 3.9 km/h 7.4 km/h 48% 0.0 mm
05:29 25.2 °C 13.4 °C 1013.8 hPa OSO 3.2 km/h 5.6 km/h 48% 0.0 mm
05:34 25.3 °C 13.5 °C 1013.9 hPa OSO 3.2 km/h 5.6 km/h 48% 0.0 mm
05:39 25.3 °C 13.5 °C 1013.9 hPa OSO 2.9 km/h 1.9 km/h 48% 0.0 mm
05:44 25.3 °C 14.1 °C 1013.9 hPa OSO 2.9 km/h   50% 0.0 mm
05:49 25.2 °C 14.7 °C 1013.6 hPa Calm     52% 0.0 mm
05:54 24.9 °C 14.7 °C 1013.6 hPa Calm     53% 0.0 mm
05:59 24.6 °C 14.7 °C 1013.6 hPa Calm     54% 0.0 mm
06:04 24.3 °C 14.7 °C 1013.7 hPa Calm     55% 0.0 mm
06:09 24.1 °C 14.5 °C 1013.7 hPa Calm     55% 0.0 mm
06:14 23.9 °C 14.6 °C 1013.7 hPa Calm     56% 0.0 mm
06:19 23.8 °C 14.5 °C 1013.6 hPa Calm   5 km/h 56% 0.0 mm
06:24 23.6 °C 14.6 °C 1013.6 hPa Calm   7.4 km/h 57% 0.0 mm
06:29 23.4 °C 14.1 °C 1013.6 hPa SSE 4.7 km/h 8.7 km/h 56% 0.0 mm
06:34 23.3 °C 14.1 °C 1013.6 hPa Sur 4.7 km/h 8.4 km/h 56% 0.0 mm
06:39 23.3 °C 13.8 °C 1013.6 hPa SSE 6.4 km/h 8.4 km/h 55% 0.0 mm
06:44 23.3 °C 13.4 °C 1013.6 hPa Sur 6.4 km/h 7.4 km/h 54% 0.0 mm
06:49 23.4 °C 13.3 °C 1013.6 hPa SSE 5.8 km/h 6.9 km/h 53% 0.0 mm
06:54 23.4 °C 13 °C 1013.6 hPa Sur 5.8 km/h 5.6 km/h 52% 0.0 mm
06:59 23.6 °C 13.2 °C 1013.6 hPa SSE 4.7 km/h 5.6 km/h 52% 0.0 mm
07:04 23.6 °C 13.2 °C 1013.6 hPa SSE 4.7 km/h 7.4 km/h 52% 0.0 mm
07:09 23.7 °C 12.9 °C 1013.6 hPa Sur 5 km/h 7.4 km/h 51% 0.0 mm
07:14 23.7 °C 12.7 °C 1013.6 hPa SSO 5 km/h 11.1 km/h 50% 0.0 mm
07:19 23.7 °C 12.7 °C 1013.7 hPa SSO 8.4 km/h 11.1 km/h 50% 0.0 mm
07:24 23.7 °C 12.3 °C 1013.7 hPa Sur 8.4 km/h 13 km/h 49% 0.0 mm
07:29 23.7 °C 12.3 °C 1013.7 hPa SO 8.4 km/h 16.7 km/h 49% 0.0 mm
07:34 23.7 °C 12.3 °C 1013.8 hPa SO 8.4 km/h 11.1 km/h 49% 0.0 mm
07:39 23.7 °C 12.3 °C 1013.8 hPa SSO 7.6 km/h 7.6 km/h 49% 0.0 mm
07:44 23.8 °C 12.1 °C 1013.8 hPa SSO 7.6 km/h 7.4 km/h 48% 0.0 mm
07:49 23.8 °C 12.1 °C 1013.9 hPa SO 5.8 km/h 7.6 km/h 48% 0.0 mm
07:54 23.9 °C 11.9 °C 1013.9 hPa OSO 5.8 km/h 9.3 km/h 47% 0.0 mm
07:59 23.9 °C 11.6 °C 1013.9 hPa SSO 7.6 km/h 11.1 km/h 46% 0.0 mm
08:04 24 °C 11.7 °C 1014.1 hPa SSO 7.6 km/h 13 km/h 46% 0.0 mm
08:09 24.1 °C 12.1 °C 1014.1 hPa SO 8.4 km/h 13 km/h 47% 0.0 mm
08:14 24.3 °C 11.9 °C 1014.1 hPa OSO 8.4 km/h 11.1 km/h 46% 0.0 mm
08:19 24.3 °C 11.9 °C 1014.1 hPa SSO 8.7 km/h 14.8 km/h 46% 0.0 mm
08:24 24.4 °C 12 °C 1014.1 hPa SSO 8.7 km/h 13 km/h 46% 0.0 mm
08:29 24.5 °C 11.8 °C 1014.1 hPa OSO 8.7 km/h 11.9 km/h 45% 0.0 mm
08:34 24.7 °C 11.9 °C 1014.3 hPa SO 8.7 km/h 11.1 km/h 45% 0.0 mm
08:39 24.8 °C 12.1 °C 1014.3 hPa SO 6.9 km/h 8.4 km/h 45% 0.0 mm
08:44 24.9 °C 11.8 °C 1014.3 hPa OSO 6.9 km/h 11.1 km/h 44% 0.0 mm
08:49 25.1 °C 11.6 °C 1014.3 hPa OSO 6.9 km/h 14 km/h 43% 0.0 mm
08:54 25.3 °C 11.8 °C 1014.3 hPa OSO 6.9 km/h 9.3 km/h 43% 0.0 mm
08:59 25.5 °C 11.7 °C 1014.3 hPa SSO 6.4 km/h 11.1 km/h 42% 0.0 mm
09:04 25.7 °C 11.8 °C 1014.4 hPa OSO 6.4 km/h 11.1 km/h 42% 0.0 mm
09:09 25.9 °C 12 °C 1014.4 hPa SSO 6.9 km/h 11.1 km/h 42% 0.0 mm
09:14 26.2 °C 11.9 °C 1014.4 hPa SSO 6.9 km/h 14.8 km/h 41% 0.0 mm
09:19 26.4 °C 12.1 °C 1014.4 hPa SO 7.6 km/h 9.3 km/h 41% 0.0 mm
09:24 26.6 °C 11.9 °C 1014.4 hPa Sur 7.6 km/h 11.1 km/h 40% 0.0 mm
09:29 26.7 °C 12 °C 1014.4 hPa OSO 7.6 km/h 11.1 km/h 40% 0.0 mm
09:34 26.9 °C 12.2 °C 1014.4 hPa ONO 7.6 km/h 7.4 km/h 40% 0.0 mm
09:39 27.2 °C 12.4 °C 1014.4 hPa Oeste 4.7 km/h 7.4 km/h 40% 0.0 mm
09:44 27.3 °C 12.1 °C 1014.4 hPa Oeste 4.7 km/h 9.3 km/h 39% 0.0 mm
09:49 27.4 °C 12.2 °C 1014.4 hPa SO 6.4 km/h 7.6 km/h 39% 0.0 mm
09:54 27.5 °C 12.3 °C 1014.4 hPa SO 6.4 km/h 13 km/h 39% 0.0 mm
09:59 27.4 °C 12.2 °C 1014.4 hPa OSO 7.6 km/h 9.3 km/h 39% 0.0 mm
10:04 27.6 °C 12 °C 1014.4 hPa OSO 7.6 km/h 11.1 km/h 38% 0.0 mm
10:09 27.7 °C 12.5 °C 1014.4 hPa SO 6.4 km/h 9.3 km/h 39% 0.0 mm
10:14 27.8 °C 12.6 °C 1014.4 hPa Oeste 6.4 km/h 7.4 km/h 39% 0.0 mm
10:19 28.1 °C 12.8 °C 1014.4 hPa Sur 6.4 km/h 9.3 km/h 39% 0.0 mm
10:24 28.3 °C 12.6 °C 1014.4 hPa SSE 6.4 km/h 5.6 km/h 38% 0.0 mm
10:29 28.6 °C 12.5 °C 1014.4 hPa SE 4.7 km/h 7.4 km/h 37% 0.0 mm
10:34 28.9 °C 12.3 °C 1014.5 hPa SO 4.7 km/h 9.3 km/h 36% 0.0 mm
10:39 29 °C 12.4 °C 1014.5 hPa Sur 6.4 km/h 11.1 km/h 36% 0.0 mm
10:44 29.2 °C 12.6 °C 1014.5 hPa Sur 6.4 km/h 10.3 km/h 36% 0.0 mm
10:49 29.4 °C 12.3 °C 1014.4 hPa SSE 6.9 km/h 9.3 km/h 35% 0.0 mm
10:54 29.6 °C 12.1 °C 1014.4 hPa SSE 6.9 km/h 9.3 km/h 34% 0.0 mm
10:59 30 °C 11.5 °C 1014.4 hPa SO 6.9 km/h 7.4 km/h 32% 0.0 mm
11:04 30.3 °C 11.8 °C 1014.4 hPa Sur 5.8 km/h 7.4 km/h 32% 0.0 mm
11:09 30.6 °C 11.6 °C 1014.4 hPa OSO 4.7 km/h 7.4 km/h 31% 0.0 mm
11:14 30.8 °C 9.6 °C 1014.4 hPa OSO 4.7 km/h 9.3 km/h 27% 0.0 mm
11:19 31.1 °C 9.9 °C 1014.4 hPa ESE 5 km/h 6.9 km/h 27% 0.0 mm
11:24 31.3 °C 9.5 °C 1014.4 hPa ESE 5 km/h 5.6 km/h 26% 0.0 mm
11:29 31.6 °C 9.2 °C 1014.4 hPa ESE 5 km/h 8.4 km/h 25% 0.0 mm
11:34 31.7 °C 9.3 °C 1014.3 hPa ENE 5 km/h 9.3 km/h 25% 0.0 mm
11:39 32.1 °C 9.6 °C 1014.3 hPa ENE 4.7 km/h 7.4 km/h 25% 0.0 mm
11:44 32.3 °C 9.8 °C 1014.3 hPa NE 4.7 km/h 11.1 km/h 25% 0.0 mm
11:49 32.2 °C 9.7 °C 1014.2 hPa North 6.4 km/h 14.8 km/h 25% 0.0 mm
11:54 32.2 °C 9.7 °C 1014.2 hPa NE 6.4 km/h 8.4 km/h 25% 0.0 mm
11:59 32.4 °C 9.8 °C 1014.2 hPa NNE 6.9 km/h 13 km/h 25% 0.0 mm
12:04 32.4 °C 9.8 °C 1014.0 hPa ENE 6.9 km/h 9.3 km/h 25% 0.0 mm
12:09 32.7 °C 9.5 °C 1014.0 hPa ENE 6.9 km/h 13.7 km/h 24% 0.0 mm
12:14 32.8 °C 9.6 °C 1014.0 hPa ENE 6.9 km/h 16.1 km/h 24% 0.0 mm
12:19 32.8 °C 9.6 °C 1014.1 hPa NE 9.5 km/h 15.6 km/h 24% 0.0 mm
12:24 32.9 °C 9.7 °C 1014.1 hPa Este 9.5 km/h 13 km/h 24% 0.0 mm
12:29 33.1 °C 10.4 °C 1014.1 hPa NNE 7.6 km/h 9.3 km/h 25% 0.0 mm
12:34 33.2 °C 9.9 °C 1014.1 hPa Este 7.6 km/h 18.5 km/h 24% 0.0 mm
12:39 33.2 °C 9.9 °C 1014.1 hPa NE 9.5 km/h 13 km/h 24% 0.0 mm
12:44 33.4 °C 10.7 °C 1014.1 hPa NE 9.5 km/h 14.8 km/h 25% 0.0 mm
12:49 33.6 °C 10.2 °C 1013.8 hPa Este 8.4 km/h 10 km/h 24% 0.0 mm
12:54 33.7 °C 10.3 °C 1013.8 hPa ENE 8.4 km/h 13 km/h 24% 0.0 mm
12:59 33.7 °C 10.3 °C 1013.8 hPa NE 7.6 km/h 13 km/h 24% 0.0 mm
13:04 33.8 °C 9.1 °C 1013.7 hPa NNE 7.6 km/h 22.2 km/h 22% 0.0 mm
13:09 34 °C 10.6 °C 1013.7 hPa NNE 13 km/h 16.7 km/h 24% 0.0 mm
13:14 34.2 °C 10.1 °C 1013.7 hPa NE 13 km/h 16.7 km/h 23% 0.0 mm
13:19 34.3 °C 10.8 °C 1013.7 hPa NE 13 km/h 24.1 km/h 24% 0.0 mm
13:24 34.3 °C 10.8 °C 1013.7 hPa NNE 13 km/h 22 km/h 24% 0.0 mm
13:29 34.2 °C 10.7 °C 1013.7 hPa Este 14 km/h 20.4 km/h 24% 0.0 mm
13:34 34.3 °C 10.8 °C 1013.7 hPa NE 14 km/h 17.2 km/h 24% 0.0 mm
13:39 34.3 °C 10.8 °C 1013.7 hPa ENE 14.8 km/h 25.9 km/h 24% 0.0 mm
13:44 34.2 °C 10.7 °C 1013.7 hPa NE 14.8 km/h 22.2 km/h 24% 0.0 mm
13:49 34.2 °C 10.1 °C 1013.7 hPa Este 16.4 km/h 24.1 km/h 23% 0.0 mm
13:54 34.3 °C 10.2 °C 1013.7 hPa ENE 16.4 km/h 24.1 km/h 23% 0.0 mm
13:59 34.2 °C 10.7 °C 1013.7 hPa ENE 14.8 km/h 20.4 km/h 24% 0.0 mm
14:04 34.2 °C 11.4 °C 1013.5 hPa Este 14.8 km/h 24.1 km/h 25% 0.0 mm
14:09 34 °C 11.2 °C 1013.5 hPa ENE 18 km/h 29.6 km/h 25% 0.0 mm
14:14 33.8 °C 11 °C 1013.5 hPa NE 18 km/h 29.6 km/h 25% 0.0 mm
14:19 33.9 °C 11.1 °C 1013.3 hPa NNE 19.8 km/h 25.9 km/h 25% 0.0 mm
14:24 34.1 °C 11.3 °C 1013.3 hPa NNE 19.8 km/h 27.8 km/h 25% 0.0 mm
14:29 34.1 °C 11.9 °C 1013.3 hPa NE 18 km/h 29.6 km/h 26% 0.0 mm
14:34 34 °C 11.8 °C 1013.2 hPa NNE 18 km/h 27.8 km/h 26% 0.0 mm
14:39 34.3 °C 12.1 °C 1013.2 hPa NE 17.2 km/h 22.2 km/h 26% 0.0 mm
14:44 34.2 °C 11.9 °C 1013.2 hPa ENE 17.2 km/h 29.6 km/h 26% 0.0 mm
14:49 34.1 °C 11.9 °C 1013.0 hPa NE 17.2 km/h 35.2 km/h 26% 0.0 mm
14:54 33.9 °C 11.1 °C 1013.0 hPa Este 17.2 km/h 27.8 km/h 25% 0.0 mm
14:59 34.2 °C 11.9 °C 1013.0 hPa ENE 19 km/h 28.2 km/h 26% 0.0 mm
15:04 34.2 °C 11.9 °C 1013.0 hPa NE 19 km/h 23.7 km/h 26% 0.0 mm
15:09 34 °C 11.8 °C 1013.0 hPa NE 19 km/h 27.8 km/h 26% 0.0 mm
15:14 34.1 °C 11.9 °C 1013.0 hPa ENE 19 km/h 27.8 km/h 26% 0.0 mm
15:19 34.2 °C 12.6 °C 1013.0 hPa NE 16.4 km/h 24.1 km/h 27% 0.0 mm
15:24 34.3 °C 12.6 °C 1013.0 hPa NE 16.4 km/h 20.4 km/h 27% 0.0 mm
15:29 34.2 °C 12.6 °C 1013.0 hPa Este 14 km/h 29.6 km/h 27% 0.0 mm
15:34 34.3 °C 12.6 °C 1012.7 hPa NE 14 km/h 24.5 km/h 27% 0.0 mm
15:39 34.4 °C 12.7 °C 1012.7 hPa ONO 14 km/h 27.8 km/h 27% 0.0 mm
15:44 34.2 °C 13.1 °C 1012.7 hPa NE 14 km/h 29.6 km/h 28% 0.0 mm
15:49 34 °C 12.9 °C 1012.8 hPa ENE 17.2 km/h 24.1 km/h 28% 0.0 mm
15:54 33.9 °C 12.8 °C 1012.8 hPa NNE 17.2 km/h 25.9 km/h 28% 0.0 mm
15:59 34 °C 13.4 °C 1012.8 hPa NE 18.3 km/h 24.1 km/h 29% 0.0 mm
16:04 34.1 °C 13 °C 1012.8 hPa NE 18.3 km/h 24.1 km/h 28% 0.0 mm
16:09 34.1 °C 13.6 °C 1012.8 hPa Este 16.1 km/h 28.2 km/h 29% 0.0 mm
16:14 33.9 °C 13.4 °C 1012.8 hPa NNO 16.1 km/h 24.5 km/h 29% 0.0 mm
16:19 33.9 °C 13.9 °C 1012.8 hPa NE 18 km/h 22.5 km/h 30% 0.0 mm
16:24 33.8 °C 14.3 °C 1012.8 hPa NE 18 km/h 25.9 km/h 31% 0.0 mm
16:29 33.9 °C 13.9 °C 1012.8 hPa ENE 16.4 km/h 22.5 km/h 30% 0.0 mm
16:34 33.7 °C 13.2 °C 1012.8 hPa NE 16.4 km/h 24.1 km/h 29% 0.0 mm
16:39 33.8 °C 13.3 °C 1012.8 hPa NE 17.2 km/h 25.9 km/h 29% 0.0 mm
16:44 33.7 °C 13.7 °C 1012.8 hPa Este 17.2 km/h 24.1 km/h 30% 0.0 mm
16:49 33.8 °C 13.8 °C 1012.7 hPa ENE 19 km/h 24.5 km/h 30% 0.0 mm
16:54 33.6 °C 13.1 °C 1012.7 hPa NE 19 km/h 25.9 km/h 29% 0.0 mm
16:59 33.8 °C 13.8 °C 1012.7 hPa ENE 18 km/h 24.1 km/h 30% 0.0 mm
17:04 33.8 °C 13.3 °C 1012.7 hPa NE 18 km/h 29.6 km/h 29% 0.0 mm
17:09 33.8 °C 13.8 °C 1012.7 hPa NE 16.4 km/h 25.9 km/h 30% 0.0 mm
17:14 33.8 °C 13.8 °C 1012.7 hPa ENE 16.4 km/h 25.9 km/h 30% 0.0 mm
17:19 33.9 °C 13.4 °C 1012.5 hPa NNE 13.7 km/h 16.7 km/h 29% 0.0 mm
17:24 33.8 °C 13.3 °C 1012.5 hPa NE 13.7 km/h 29.6 km/h 29% 0.0 mm
17:29 33.7 °C 13.2 °C 1012.5 hPa NE 16.4 km/h 27 km/h 29% 0.0 mm
17:34 33.8 °C 12.7 °C 1012.4 hPa NE 16.4 km/h 22.2 km/h 28% 0.0 mm
17:39 33.9 °C 13.4 °C 1012.4 hPa NE 15.6 km/h 25.9 km/h 29% 0.0 mm
17:44 33.8 °C 12.7 °C 1012.4 hPa NE 15.6 km/h 29.6 km/h 28% 0.0 mm
17:49 33.6 °C 12.6 °C 1012.3 hPa NNE 18 km/h 27.8 km/h 28% 0.0 mm
17:54 33.6 °C 12.6 °C 1012.3 hPa ENE 18 km/h 25.9 km/h 28% 0.0 mm
17:59 33.7 °C 12.7 °C 1012.3 hPa ENE 17.2 km/h 22.2 km/h 28% 0.0 mm
18:04 33.8 °C 12.7 °C 1012.2 hPa Este 17.2 km/h 24.1 km/h 28% 0.0 mm
18:09 33.9 °C 12.8 °C 1012.2 hPa Este 13.7 km/h 24.1 km/h 28% 0.0 mm
18:14 33.8 °C 12.2 °C 1012.2 hPa NE 13.7 km/h 24.5 km/h 27% 0.0 mm
18:19 33.6 °C 12.6 °C 1012.1 hPa SE 15.6 km/h 24.1 km/h 28% 0.0 mm
18:24 33.6 °C 12 °C 1012.1 hPa NNE 15.6 km/h 22.2 km/h 27% 0.0 mm
18:29 33.7 °C 12.7 °C 1012.1 hPa ENE 14.8 km/h 20.4 km/h 28% 0.0 mm
18:34 33.4 °C 12.9 °C 1011.9 hPa ENE 14.8 km/h 29.6 km/h 29% 0.0 mm
18:39 33.4 °C 12.9 °C 1011.9 hPa NE 18 km/h 20.4 km/h 29% 0.0 mm
18:44 33.3 °C 12.8 °C 1011.9 hPa NE 18 km/h 27.8 km/h 29% 0.0 mm
18:49 33.2 °C 13.3 °C 1012.0 hPa NE 17.2 km/h 27.8 km/h 30% 0.0 mm
18:54 33.1 °C 13.7 °C 1012.0 hPa ENE 17.2 km/h 22.5 km/h 31% 0.0 mm
18:59 33.1 °C 13.2 °C 1012.0 hPa NE 17.2 km/h 25.9 km/h 30% 0.0 mm
19:04 33 °C 13.1 °C 1012.0 hPa NNE 17.2 km/h 16.1 km/h 30% 0.0 mm
19:09 32.9 °C 14.5 °C 1012.0 hPa ENE 17.2 km/h 27.8 km/h 33% 0.0 mm
19:14 32.9 °C 14.5 °C 1012.0 hPa North 17.2 km/h 22.2 km/h 33% 0.0 mm
19:19 32.8 °C 13.9 °C 1012.0 hPa Este 14 km/h 25.9 km/h 32% 0.0 mm
19:24 32.8 °C 13.9 °C 1012.0 hPa NE 14 km/h 23.3 km/h 32% 0.0 mm
19:29 32.7 °C 14.3 °C 1012.0 hPa NE 13.7 km/h 27.8 km/h 33% 0.0 mm
19:34 32.6 °C 15.2 °C 1011.9 hPa NE 13.7 km/h 20.4 km/h 35% 0.0 mm
19:39 32.3 °C 14.4 °C 1011.9 hPa NE 15.6 km/h 24.1 km/h 34% 0.0 mm
19:44 32.2 °C 15.7 °C 1011.9 hPa NE 15.6 km/h 23.3 km/h 37% 0.0 mm
19:49 32.1 °C 16 °C 1011.9 hPa NNE 15.6 km/h 24.1 km/h 38% 0.0 mm
19:54 31.9 °C 15.4 °C 1011.9 hPa NE 15.6 km/h 24.1 km/h 37% 0.0 mm
19:59 31.8 °C 16.1 °C 1011.9 hPa NE 16.1 km/h 22.2 km/h 39% 0.0 mm
20:04 31.7 °C 16.4 °C 1012.0 hPa NE 16.1 km/h 20.4 km/h 40% 0.0 mm
20:09 31.5 °C 16.3 °C 1012.0 hPa North 14.8 km/h 24.1 km/h 40% 0.0 mm
20:14 31.4 °C 15.8 °C 1012.0 hPa NNE 14.8 km/h 22.2 km/h 39% 0.0 mm
20:19 31.2 °C 16 °C 1012.1 hPa NNE 15.6 km/h 23.3 km/h 40% 0.0 mm
20:24 31.2 °C 16.4 °C 1012.1 hPa NNE 15.6 km/h 20.1 km/h 41% 0.0 mm
20:29 31.1 °C 16.3 °C 1012.1 hPa ENE 13.7 km/h 20.9 km/h 41% 0.0 mm
20:34 30.9 °C 16.5 °C 1012.1 hPa NE 13.7 km/h 22.2 km/h 42% 0.0 mm
20:39 30.7 °C 15.9 °C 1012.1 hPa NE 14 km/h 20.4 km/h 41% 0.0 mm
20:44 30.6 °C 15.8 °C 1012.1 hPa NNE 14 km/h 16.7 km/h 41% 0.0 mm
20:49 30.4 °C 16.4 °C 1012.4 hPa NE 12.2 km/h 14.8 km/h 43% 0.0 mm
20:54 30.2 °C 16.6 °C 1012.4 hPa NE 12.2 km/h 14.8 km/h 44% 0.0 mm
20:59 30.1 °C 16.8 °C 1012.4 hPa NE 12.2 km/h 13 km/h 45% 0.0 mm
21:04 29.9 °C 17.4 °C 1012.4 hPa Este 12.2 km/h 16.1 km/h 47% 0.0 mm
21:09 29.7 °C 17.2 °C 1012.4 hPa NNE 11.1 km/h 14.8 km/h 47% 0.0 mm
21:14 29.5 °C 17 °C 1012.4 hPa NE 11.1 km/h 16.7 km/h 47% 0.0 mm
21:19 29.4 °C 17.2 °C 1012.5 hPa ENE 12.2 km/h 18.5 km/h 48% 0.0 mm
21:24 29.3 °C 17.2 °C 1012.5 hPa ENE 12.2 km/h 11.1 km/h 48% 0.0 mm
21:29 29.2 °C 17.1 °C 1012.5 hPa NE 8.7 km/h 13 km/h 48% 0.0 mm
21:34 29.1 °C 16.6 °C 1012.7 hPa NE 8.7 km/h 13 km/h 47% 0.0 mm
21:39 29.1 °C 16.6 °C 1012.7 hPa Este 9.5 km/h 11.1 km/h 47% 0.0 mm
21:44 28.9 °C 16.4 °C 1012.7 hPa NE 9.5 km/h 11.1 km/h 47% 0.0 mm
21:49 28.8 °C 16.7 °C 1012.7 hPa Este 7.6 km/h 11.1 km/h 48% 0.0 mm
21:54 28.7 °C 16.6 °C 1012.7 hPa NE 7.6 km/h 11.1 km/h 48% 0.0 mm
21:59 28.6 °C 16.8 °C 1012.7 hPa NE 6.9 km/h 11.1 km/h 49% 0.0 mm
22:04 28.6 °C 17.2 °C 1012.7 hPa ENE 6.9 km/h 9.3 km/h 50% 0.0 mm
22:09 28.4 °C 17 °C 1012.7 hPa ENE 6.9 km/h 13 km/h 50% 0.0 mm
22:14 28.3 °C 17.2 °C 1012.7 hPa ENE 6.9 km/h 11.1 km/h 51% 0.0 mm
22:19 28.2 °C 17.4 °C 1012.8 hPa NNE 8.4 km/h 16.7 km/h 52% 0.0 mm
22:24 28.1 °C 17.6 °C 1012.8 hPa ENE 8.4 km/h 13 km/h 53% 0.0 mm
22:29 28 °C 17.8 °C 1012.8 hPa NE 8.4 km/h 13 km/h 54% 0.0 mm
22:34 27.9 °C 18 °C 1013.0 hPa NNE 8.4 km/h 13 km/h 55% 0.0 mm
22:39 27.8 °C 18.2 °C 1013.0 hPa NE 8.4 km/h 14.8 km/h 56% 0.0 mm
22:44 27.7 °C 18.4 °C 1013.0 hPa NNE 8.4 km/h 11.1 km/h 57% 0.0 mm
22:49 27.6 °C 18.9 °C 1013.1 hPa NE 7.6 km/h 14.8 km/h 59% 0.0 mm
22:54 27.4 °C 18.9 °C 1013.1 hPa ENE 7.6 km/h 13 km/h 60% 0.0 mm
22:59 27.3 °C 19.1 °C 1013.1 hPa ESE 9.5 km/h 14.8 km/h 61% 0.0 mm
23:04 27.2 °C 19.3 °C 1013.2 hPa NE 9.5 km/h 14.8 km/h 62% 0.0 mm
23:09 27.1 °C 19.2 °C 1013.2 hPa Este 8.4 km/h 13 km/h 62% 0.0 mm
23:14 27.1 °C 19.4 °C 1013.2 hPa NNE 8.4 km/h 13 km/h 63% 0.0 mm
23:19 27 °C 19.3 °C 1013.3 hPa NE 6.9 km/h 11.1 km/h 63% 0.0 mm
23:24 27 °C 19.3 °C 1013.3 hPa ENE 6.9 km/h 13.7 km/h 63% 0.0 mm
23:29 26.9 °C 19.3 °C 1013.3 hPa ENE 8.4 km/h 9.3 km/h 63% 0.0 mm
23:34 26.9 °C 19.3 °C 1013.3 hPa Este 8.4 km/h 11.1 km/h 63% 0.0 mm
23:39 26.9 °C 19.3 °C 1013.3 hPa ENE 5.8 km/h 7.6 km/h 63% 0.0 mm
23:44 26.9 °C 19.3 °C 1013.3 hPa NE 5.8 km/h 9.3 km/h 63% 0.0 mm
23:49 26.9 °C 19.3 °C 1013.3 hPa NE 5.8 km/h 9.3 km/h 63% 0.0 mm
23:54 26.8 °C 19.2 °C 1013.3 hPa NE 5.8 km/h 11.1 km/h 63% 0.0 mm
23:59 26.8 °C 19.2 °C 1013.3 hPa Este 6.9 km/h 13 km/h 63% 0.0 mm
Murcia-Puente Tocinos, España
Compliments of Weather Underground - 2.75 mb

La estación de MeteoMurcia.com, publica sus datos en los siguientes proyectos:

Weather Underground PWS IMURCIAP2 Meteoclimatic www.awekas.at

W3Counter
Web Analytics